createdAt,value
2022-09-14T00:00:37.359Z,66.90
2022-09-14T00:03:41.401Z,67.00
2022-09-14T00:06:45.387Z,67.00
2022-09-14T00:09:49.182Z,67.00
2022-09-14T00:12:54.702Z,66.80
2022-09-14T00:15:58.358Z,67.00
2022-09-14T00:19:05.503Z,67.10
2022-09-14T00:22:09.145Z,67.10
2022-09-14T00:25:12.765Z,67.20
2022-09-14T00:28:18.368Z,67.40
2022-09-14T00:31:22.908Z,67.40
2022-09-14T00:34:26.691Z,67.50
2022-09-14T00:37:30.341Z,67.50
2022-09-14T00:40:34.234Z,67.60
2022-09-14T00:43:58.364Z,67.60
2022-09-14T00:47:03.883Z,67.90
2022-09-14T00:50:08.773Z,67.70
2022-09-14T00:53:12.481Z,67.80
2022-09-14T00:56:16.846Z,67.80
2022-09-14T00:59:27.073Z,67.90
2022-09-14T01:02:30.998Z,68.00
2022-09-14T01:05:39.013Z,68.00
2022-09-14T01:09:04.931Z,68.00
2022-09-14T01:12:17.645Z,68.00
2022-09-14T01:15:28.349Z,68.10
2022-09-14T01:18:37.670Z,68.20
2022-09-14T01:21:43.651Z,68.20
2022-09-14T01:24:50.698Z,68.30
2022-09-14T01:27:57.886Z,68.30
2022-09-14T01:31:04.976Z,68.40
2022-09-14T01:34:14.226Z,68.50
2022-09-14T01:37:22.186Z,68.50
2022-09-14T01:40:31.041Z,68.60
2022-09-14T01:43:40.177Z,68.60
2022-09-14T01:46:49.985Z,68.70
2022-09-14T01:50:00.853Z,68.70
2022-09-14T01:53:10.387Z,68.90
2022-09-14T01:56:19.725Z,68.90
2022-09-14T01:59:29.346Z,68.90
2022-09-14T02:02:39.442Z,69.00
2022-09-14T02:05:48.479Z,69.10
2022-09-14T02:08:53.372Z,69.10
2022-09-14T02:12:00.075Z,69.20
2022-09-14T02:15:07.364Z,69.30
2022-09-14T02:18:11.228Z,69.30
2022-09-14T02:21:17.534Z,69.30
2022-09-14T02:24:21.905Z,69.40
2022-09-14T02:27:26.346Z,69.30
2022-09-14T02:30:40.345Z,69.40
2022-09-14T02:33:50.319Z,69.60
2022-09-14T02:37:02.063Z,69.50
2022-09-14T02:40:14.047Z,69.50
2022-09-14T02:43:29.308Z,69.60
2022-09-14T02:46:43.239Z,69.70
2022-09-14T02:49:53.214Z,69.60
2022-09-14T02:53:02.491Z,69.60
2022-09-14T02:56:11.090Z,69.70
2022-09-14T02:59:14.750Z,69.80
2022-09-14T03:02:20.401Z,69.70
2022-09-14T03:05:24.428Z,69.90
2022-09-14T03:08:28.318Z,69.90
2022-09-14T03:11:31.930Z,70.40
2022-09-14T03:14:35.535Z,69.60
2022-09-14T03:17:41.065Z,69.70
2022-09-14T03:20:45.078Z,69.90
2022-09-14T03:23:49.002Z,70.00
2022-09-14T03:26:52.590Z,69.90
2022-09-14T03:29:56.230Z,69.80
2022-09-14T03:33:02.496Z,70.00
2022-09-14T03:36:12.245Z,70.10
2022-09-14T03:39:15.915Z,70.30
2022-09-14T03:42:19.910Z,70.20
2022-09-14T03:45:23.738Z,70.30
2022-09-14T03:48:30.992Z,70.30
2022-09-14T03:51:36.090Z,70.40
2022-09-14T03:54:39.733Z,70.40
2022-09-14T03:57:43.441Z,70.40
2022-09-14T04:00:47.166Z,70.40
2022-09-14T04:03:52.860Z,70.40
2022-09-14T04:06:56.711Z,70.50
2022-09-14T04:10:00.478Z,71.20
2022-09-14T04:13:04.140Z,70.60
2022-09-14T04:16:08.045Z,70.60
2022-09-14T04:19:14.401Z,70.70
2022-09-14T04:22:18.014Z,70.80
2022-09-14T04:25:22.643Z,70.80
2022-09-14T04:28:26.921Z,70.80
2022-09-14T04:31:30.622Z,70.90
2022-09-14T04:34:36.976Z,70.90
2022-09-14T04:37:40.610Z,70.90
2022-09-14T04:40:44.189Z,71.00
2022-09-14T04:43:49.049Z,71.00
2022-09-14T04:46:52.760Z,71.00
2022-09-14T04:49:58.438Z,71.10
2022-09-14T04:53:02.062Z,71.80
2022-09-14T04:56:08.008Z,71.10
2022-09-14T04:59:12.014Z,71.20
2022-09-14T05:02:15.555Z,71.20
2022-09-14T05:05:21.359Z,71.20
2022-09-14T05:08:25.103Z,71.10
2022-09-14T05:11:33.330Z,71.20
2022-09-14T05:14:37.010Z,71.30
2022-09-14T05:17:40.619Z,71.30
2022-09-14T05:20:46.645Z,71.40
2022-09-14T05:23:55.244Z,71.40
2022-09-14T05:27:01.629Z,71.60
2022-09-14T05:30:06.917Z,71.50
2022-09-14T05:33:10.509Z,71.60
2022-09-14T05:36:16.339Z,71.60
2022-09-14T05:39:23.345Z,71.70
2022-09-14T05:42:27.138Z,71.70
2022-09-14T05:45:30.806Z,71.70
2022-09-14T05:48:34.877Z,71.80
2022-09-14T05:51:40.217Z,71.80
2022-09-14T05:54:43.812Z,71.70
2022-09-14T05:57:50.682Z,71.60
2022-09-14T06:00:54.329Z,71.70
2022-09-14T06:03:59.677Z,71.80
2022-09-14T06:07:18.323Z,71.80
2022-09-14T06:10:23.640Z,72.00
2022-09-14T06:13:27.295Z,71.90
2022-09-14T06:16:31.934Z,72.00
2022-09-14T06:19:36.653Z,72.10
2022-09-14T06:22:43.078Z,72.20
2022-09-14T06:25:47.477Z,72.30
2022-09-14T06:28:52.008Z,72.30
2022-09-14T06:31:55.971Z,72.30
2022-09-14T06:34:59.692Z,72.40
2022-09-14T06:38:05.254Z,72.40
2022-09-14T06:41:11.605Z,72.20
2022-09-14T06:44:15.343Z,72.30
2022-09-14T06:47:18.959Z,72.50
2022-09-14T06:50:22.588Z,72.50
2022-09-14T06:53:28.296Z,72.50
2022-09-14T06:56:34.189Z,72.60
2022-09-14T06:59:38.028Z,72.70
2022-09-14T07:02:41.769Z,72.60
2022-09-14T07:05:45.474Z,72.60
2022-09-14T07:08:52.411Z,72.70
2022-09-14T07:11:56.081Z,72.80
2022-09-14T07:14:59.674Z,72.80
2022-09-14T07:18:03.691Z,72.90
2022-09-14T07:21:08.300Z,72.90
2022-09-14T07:24:14.845Z,72.80
2022-09-14T07:27:18.484Z,72.70
2022-09-14T07:30:24.237Z,72.70
2022-09-14T07:33:28.094Z,72.80
2022-09-14T07:36:34.998Z,72.90
2022-09-14T07:39:40.786Z,73.00
2022-09-14T07:42:44.414Z,73.10
2022-09-14T07:45:48.018Z,73.20
2022-09-14T07:48:57.047Z,73.10
2022-09-14T07:52:00.931Z,73.20
2022-09-14T07:55:07.804Z,73.10
2022-09-14T07:58:11.403Z,73.10
2022-09-14T08:01:17.699Z,73.00
2022-09-14T08:04:21.622Z,73.10
2022-09-14T08:07:25.233Z,73.10
2022-09-14T08:10:30.714Z,73.20
2022-09-14T08:13:35.453Z,73.30
2022-09-14T08:16:39.985Z,73.30
2022-09-14T08:19:43.541Z,73.30
2022-09-14T08:22:47.337Z,73.30
2022-09-14T08:25:52.837Z,73.20
2022-09-14T08:28:58.926Z,73.20
2022-09-14T08:32:02.712Z,73.20
2022-09-14T08:35:06.648Z,73.20
2022-09-14T08:38:10.178Z,73.00
2022-09-14T08:41:26.068Z,72.90
2022-09-14T08:44:32.616Z,73.00
2022-09-14T08:47:39.175Z,73.00
2022-09-14T08:50:42.857Z,73.00
2022-09-14T08:53:47.577Z,73.00
2022-09-14T08:57:00.770Z,73.00
2022-09-14T09:00:12.578Z,72.90
2022-09-14T09:03:51.232Z,72.80
2022-09-14T09:07:03.237Z,72.80
2022-09-14T09:10:10.294Z,72.70
2022-09-14T09:13:19.070Z,72.60
2022-09-14T09:16:25.407Z,72.60
2022-09-14T09:19:34.102Z,72.50
2022-09-14T09:22:42.078Z,72.40
2022-09-14T09:25:59.384Z,72.30
2022-09-14T09:29:06.131Z,72.30
2022-09-14T09:32:28.699Z,72.20
2022-09-14T09:35:35.447Z,72.10
2022-09-14T09:38:46.833Z,72.00
2022-09-14T09:41:56.331Z,71.90
2022-09-14T09:45:04.301Z,71.80
2022-09-14T09:48:12.481Z,71.70
2022-09-14T09:51:22.170Z,71.60
2022-09-14T09:54:31.135Z,71.50
2022-09-14T09:57:36.714Z,71.40
2022-09-14T10:00:42.292Z,71.40
2022-09-14T10:03:50.866Z,71.30
2022-09-14T10:06:55.298Z,71.20
2022-09-14T10:10:01.384Z,71.20
2022-09-14T10:13:07.070Z,71.10
2022-09-14T10:16:17.389Z,71.00
2022-09-14T10:19:25.571Z,70.90
2022-09-14T10:22:30.715Z,70.80
2022-09-14T10:25:34.335Z,70.70
2022-09-14T10:28:38.357Z,70.50
2022-09-14T10:31:44.473Z,70.40
2022-09-14T10:34:48.201Z,71.00
2022-09-14T10:38:07.597Z,70.40
2022-09-14T10:41:26.617Z,70.20
2022-09-14T10:44:47.436Z,70.10
2022-09-14T10:48:17.408Z,70.00
2022-09-14T10:51:35.226Z,69.90
2022-09-14T10:55:04.574Z,69.80
2022-09-14T10:58:26.900Z,69.80
2022-09-14T11:01:47.528Z,69.80
2022-09-14T11:05:16.255Z,69.80
2022-09-14T11:08:25.905Z,69.70
2022-09-14T11:11:40.165Z,69.70
2022-09-14T11:14:54.786Z,69.70
2022-09-14T11:18:12.325Z,69.70
2022-09-14T11:21:28.901Z,69.60
2022-09-14T11:24:39.786Z,69.60
2022-09-14T11:27:47.522Z,69.40
2022-09-14T11:30:56.012Z,69.30
2022-09-14T11:34:12.458Z,69.20
2022-09-14T11:37:20.834Z,69.00
2022-09-14T11:40:29.329Z,68.90
2022-09-14T11:43:43.963Z,68.90
2022-09-14T11:46:53.754Z,68.80
2022-09-14T11:50:07.740Z,68.80
2022-09-14T11:53:15.414Z,68.70
2022-09-14T11:56:28.161Z,68.70
2022-09-14T11:59:53.910Z,68.50
2022-09-14T12:03:14.501Z,68.40
2022-09-14T12:06:43.686Z,68.40
2022-09-14T12:09:49.634Z,68.10
2022-09-14T12:12:55.890Z,68.10
2022-09-14T12:16:04.479Z,68.10
2022-09-14T12:19:19.037Z,67.80
2022-09-14T12:22:34.574Z,67.70
2022-09-14T12:25:41.574Z,67.70
2022-09-14T12:28:51.987Z,67.70
2022-09-14T12:32:27.262Z,67.60
2022-09-14T12:35:48.177Z,67.40
2022-09-14T12:39:22.729Z,67.30
2022-09-14T12:42:31.630Z,67.10
2022-09-14T12:45:52.646Z,67.30
2022-09-14T12:48:58.320Z,67.10
2022-09-14T12:52:23.379Z,67.20
2022-09-14T12:55:42.071Z,67.10
2022-09-14T12:59:04.440Z,66.90
2022-09-14T13:02:31.569Z,66.90
2022-09-14T13:05:36.062Z,66.80
2022-09-14T13:08:39.902Z,66.90
2022-09-14T13:11:47.882Z,66.80
2022-09-14T13:14:57.706Z,66.60
2022-09-14T13:18:03.175Z,66.50
2022-09-14T13:21:23.358Z,66.50
2022-09-14T13:24:34.097Z,66.40
2022-09-14T13:27:39.563Z,66.30
2022-09-14T13:30:54.377Z,67.00
2022-09-14T13:33:58.459Z,66.20
2022-09-14T13:37:02.502Z,66.20
2022-09-14T13:40:07.806Z,66.10
2022-09-14T13:43:12.064Z,66.10
2022-09-14T13:46:20.442Z,66.00
2022-09-14T13:49:24.853Z,65.80
2022-09-14T13:52:57.131Z,65.60
2022-09-14T13:55:56.279Z,65.60
2022-09-14T13:59:20.858Z,65.50
2022-09-14T14:02:29.150Z,65.20
2022-09-14T14:05:36.345Z,65.20
2022-09-14T14:08:40.497Z,65.20
2022-09-14T14:11:46.973Z,65.10
2022-09-14T14:14:58.036Z,65.00
2022-09-14T14:18:38.622Z,65.00
2022-09-14T14:21:44.182Z,64.70
2022-09-14T14:25:12.349Z,65.00
2022-09-14T14:28:18.445Z,64.80
2022-09-14T14:31:25.617Z,64.70
2022-09-14T14:34:30.818Z,64.60
2022-09-14T14:37:36.415Z,64.50
2022-09-14T14:40:42.158Z,64.40
2022-09-14T14:43:47.246Z,64.30
2022-09-14T14:46:51.258Z,64.20
2022-09-14T14:49:54.931Z,64.10
2022-09-14T14:53:00.654Z,64.00
2022-09-14T14:56:04.406Z,63.90
2022-09-14T14:59:17.907Z,63.90
2022-09-14T15:02:21.513Z,64.30
2022-09-14T15:05:25.558Z,63.70
2022-09-14T15:08:31.110Z,63.60
2022-09-14T15:11:35.493Z,63.50
2022-09-14T15:14:39.165Z,63.70
2022-09-14T15:17:42.831Z,63.30
2022-09-14T15:20:46.435Z,63.30
2022-09-14T15:23:52.266Z,63.30
2022-09-14T15:26:56.059Z,63.20
2022-09-14T15:29:59.707Z,63.30
2022-09-14T15:33:03.364Z,63.30
2022-09-14T15:36:07.386Z,63.40
2022-09-14T15:39:16.115Z,63.30
2022-09-14T15:42:20.052Z,63.20
2022-09-14T15:45:23.473Z,63.20
2022-09-14T15:48:27.067Z,63.40
2022-09-14T15:51:30.665Z,63.30
2022-09-14T15:54:38.450Z,63.30
2022-09-14T15:57:42.065Z,63.20
2022-09-14T16:00:46.228Z,63.20
2022-09-14T16:03:49.853Z,63.10
2022-09-14T16:06:53.521Z,63.10
2022-09-14T16:09:59.290Z,63.10
2022-09-14T16:13:02.955Z,63.10
2022-09-14T16:16:09.309Z,63.00
2022-09-14T16:19:15.048Z,63.00
2022-09-14T16:22:18.674Z,63.00
2022-09-14T16:25:24.222Z,63.00
2022-09-14T16:28:28.794Z,62.90
2022-09-14T16:31:34.219Z,62.90
2022-09-14T16:34:38.195Z,62.90
2022-09-14T16:37:41.828Z,62.90
2022-09-14T16:40:47.402Z,62.90
2022-09-14T16:43:55.641Z,63.00
2022-09-14T16:47:00.215Z,63.00
2022-09-14T16:50:04.773Z,63.00
2022-09-14T16:53:08.389Z,63.10
2022-09-14T16:56:16.699Z,63.00
2022-09-14T16:59:20.592Z,63.10
2022-09-14T17:02:24.178Z,63.70
2022-09-14T17:05:27.819Z,63.10
2022-09-14T17:08:31.565Z,63.20
2022-09-14T17:11:38.171Z,63.20
2022-09-14T17:14:41.820Z,63.30
2022-09-14T17:17:45.488Z,63.30
2022-09-14T17:20:56.065Z,63.30
2022-09-14T17:24:00.569Z,63.40
2022-09-14T17:27:06.161Z,63.50
2022-09-14T17:30:11.182Z,63.50
2022-09-14T17:33:14.775Z,63.60
2022-09-14T17:36:18.526Z,63.60
2022-09-14T17:39:22.152Z,63.60
2022-09-14T17:42:28.256Z,63.70
2022-09-14T17:45:31.916Z,63.80
2022-09-14T17:48:37.989Z,63.80
2022-09-14T17:51:43.546Z,63.90
2022-09-14T17:54:47.146Z,63.80
2022-09-14T17:57:52.692Z,63.90
2022-09-14T18:01:06.158Z,64.00
2022-09-14T18:04:11.707Z,64.00
2022-09-14T18:07:15.910Z,64.20
2022-09-14T18:10:19.947Z,64.10
2022-09-14T18:13:25.534Z,64.20
2022-09-14T18:16:29.446Z,64.20
2022-09-14T18:19:32.890Z,64.20
2022-09-14T18:22:36.593Z,64.30
2022-09-14T18:25:41.995Z,64.20
2022-09-14T18:28:50.123Z,64.30
2022-09-14T18:31:54.739Z,64.30
2022-09-14T18:34:58.557Z,64.40
2022-09-14T18:38:02.158Z,64.50
2022-09-14T18:41:08.439Z,65.10
2022-09-14T18:44:13.969Z,64.50
2022-09-14T18:47:21.012Z,64.60
2022-09-14T18:50:25.106Z,64.60
2022-09-14T18:53:28.693Z,64.70
2022-09-14T18:56:34.220Z,64.70
2022-09-14T18:59:39.853Z,64.80
2022-09-14T19:02:43.470Z,64.80
2022-09-14T19:05:47.070Z,64.80
2022-09-14T19:08:51.537Z,64.90
2022-09-14T19:11:55.181Z,65.00
2022-09-14T19:15:00.722Z,65.10
2022-09-14T19:18:04.330Z,65.10
2022-09-14T19:21:09.392Z,65.10
2022-09-14T19:24:14.685Z,65.10
2022-09-14T19:27:18.826Z,65.20
2022-09-14T19:30:24.338Z,65.10
2022-09-14T19:33:27.987Z,65.30
2022-09-14T19:36:34.085Z,65.30
2022-09-14T19:39:37.776Z,65.30
2022-09-14T19:42:41.404Z,65.30
2022-09-14T19:45:47.199Z,65.40
2022-09-14T19:48:51.303Z,65.40
2022-09-14T19:51:55.941Z,65.40
2022-09-14T19:54:59.537Z,65.50
2022-09-14T19:58:03.459Z,65.50
2022-09-14T20:01:09.073Z,65.50
2022-09-14T20:04:13.063Z,65.60
2022-09-14T20:07:16.818Z,65.60
2022-09-14T20:10:20.443Z,65.60
2022-09-14T20:13:24.156Z,65.60
2022-09-14T20:16:31.815Z,65.70
2022-09-14T20:19:35.886Z,65.80
2022-09-14T20:22:39.592Z,65.70
2022-09-14T20:25:43.330Z,65.80
2022-09-14T20:28:46.971Z,65.90
2022-09-14T20:31:52.746Z,65.90
2022-09-14T20:34:56.427Z,66.00
2022-09-14T20:38:00.093Z,66.00
2022-09-14T20:41:07.081Z,66.00
2022-09-14T20:44:11.369Z,66.10
2022-09-14T20:47:16.886Z,66.20
2022-09-14T20:50:20.478Z,66.20
2022-09-14T20:53:24.723Z,66.20
2022-09-14T20:56:31.429Z,66.30
2022-09-14T20:59:35.325Z,66.30
2022-09-14T21:02:40.865Z,66.40
2022-09-14T21:05:44.527Z,66.40
2022-09-14T21:08:48.542Z,66.40
2022-09-14T21:11:52.282Z,66.50
2022-09-14T21:14:56.048Z,66.50
2022-09-14T21:18:01.623Z,66.50
2022-09-14T21:21:07.110Z,67.20
2022-09-14T21:24:12.748Z,66.60
2022-09-14T21:27:16.391Z,66.70
2022-09-14T21:30:20.163Z,66.60
2022-09-14T21:33:26.034Z,66.70
2022-09-14T21:36:33.857Z,66.70
2022-09-14T21:39:37.802Z,66.90
2022-09-14T21:42:41.158Z,66.90
2022-09-14T21:45:47.951Z,66.90
2022-09-14T21:48:53.929Z,66.90
2022-09-14T21:51:57.619Z,66.90
2022-09-14T21:55:01.220Z,67.00
2022-09-14T21:58:04.837Z,67.00
2022-09-14T22:01:08.884Z,67.00
2022-09-14T22:04:17.117Z,67.10
2022-09-14T22:07:21.275Z,67.10
2022-09-14T22:10:26.323Z,67.10
2022-09-14T22:13:29.906Z,67.20
2022-09-14T22:16:35.152Z,67.30
2022-09-14T22:19:41.205Z,67.30
2022-09-14T22:22:45.343Z,67.30
2022-09-14T22:25:48.949Z,67.40
2022-09-14T22:28:54.412Z,67.40
2022-09-14T22:31:58.742Z,67.50
2022-09-14T22:35:04.549Z,67.50
2022-09-14T22:38:08.765Z,67.60
2022-09-14T22:41:14.599Z,67.60
2022-09-14T22:44:18.224Z,67.70
2022-09-14T22:47:21.842Z,67.70
2022-09-14T22:50:27.425Z,67.70
2022-09-14T22:53:32.415Z,67.80
2022-09-14T22:56:37.732Z,67.80
2022-09-14T22:59:41.844Z,67.90
2022-09-14T23:02:45.470Z,68.00
2022-09-14T23:05:55.647Z,68.00
2022-09-14T23:08:59.792Z,68.10
2022-09-14T23:12:03.737Z,68.10
2022-09-14T23:15:08.326Z,68.10
2022-09-14T23:18:12.609Z,68.20
2022-09-14T23:21:18.361Z,68.20
2022-09-14T23:24:22.208Z,68.40
2022-09-14T23:27:25.997Z,68.40
2022-09-14T23:30:30.446Z,68.40
2022-09-14T23:33:35.046Z,68.50
2022-09-14T23:36:40.691Z,68.50
2022-09-14T23:39:44.424Z,68.70
2022-09-14T23:42:48.805Z,68.80
2022-09-14T23:45:52.452Z,68.80
2022-09-14T23:48:56.086Z,68.90
2022-09-14T23:52:01.617Z,69.00
2022-09-14T23:55:06.105Z,69.20
2022-09-14T23:58:09.725Z,69.20
